createdAt,value
2023-04-15T05:32:36.730Z,8.05
2023-04-15T05:35:04.153Z,8.10
2023-04-15T05:37:31.403Z,8.00
2023-04-15T05:39:58.494Z,7.77
2023-04-15T05:42:25.795Z,8.68
2023-04-15T05:44:52.458Z,8.65
2023-04-15T05:47:19.063Z,7.50
2023-04-15T05:49:45.871Z,8.00
2023-04-15T05:52:12.501Z,8.23
2023-04-15T05:54:39.239Z,7.53
2023-04-15T05:57:06.406Z,7.85
2023-04-15T05:59:33.047Z,7.50
2023-04-15T06:01:59.640Z,7.50
2023-04-15T06:04:26.434Z,7.23
2023-04-15T06:06:53.105Z,7.47
2023-04-15T06:09:19.684Z,7.45
2023-04-15T06:11:46.222Z,7.70
2023-04-15T06:14:12.857Z,7.75
2023-04-15T06:16:39.616Z,7.70
2023-04-15T06:19:06.294Z,7.68
2023-04-15T06:21:33.128Z,7.10
2023-04-15T06:24:03.842Z,7.63
2023-04-15T06:26:31.220Z,7.10
2023-04-15T06:28:57.872Z,6.97
2023-04-15T06:31:24.491Z,6.95
2023-04-15T06:33:51.400Z,8.10
2023-04-15T06:36:17.979Z,7.47
2023-04-15T06:38:44.564Z,7.22
2023-04-15T06:41:11.545Z,7.73
2023-04-15T06:43:38.419Z,8.00
2023-04-15T06:46:05.391Z,7.80
2023-04-15T06:48:32.261Z,7.75
2023-04-15T06:50:58.850Z,7.97
2023-04-15T06:53:28.005Z,6.90
2023-04-15T06:55:54.633Z,7.82
2023-04-15T06:58:21.817Z,7.95
2023-04-15T07:00:48.815Z,7.20
2023-04-15T07:03:15.695Z,7.45
2023-04-15T07:05:42.525Z,7.13
2023-04-15T07:08:09.463Z,7.40
2023-04-15T07:10:36.470Z,7.13
2023-04-15T07:13:03.039Z,7.28
2023-04-15T07:15:29.690Z,7.40
2023-04-15T07:17:56.379Z,7.33
2023-04-15T07:20:23.353Z,7.65
2023-04-15T07:22:50.099Z,7.72
2023-04-15T07:25:17.747Z,7.05
2023-04-15T07:27:44.418Z,7.20
2023-04-15T07:30:12.628Z,7.70
2023-04-15T07:32:39.330Z,7.30
2023-04-15T07:35:06.189Z,6.82
2023-04-15T07:37:33.693Z,8.18
2023-04-15T07:40:00.296Z,7.03
2023-04-15T07:42:27.106Z,7.23
2023-04-15T07:44:53.691Z,6.78
2023-04-15T07:47:20.292Z,7.00
2023-04-15T07:49:47.313Z,7.28
2023-04-15T07:52:13.844Z,6.88
2023-04-15T07:54:40.407Z,6.67
2023-04-15T07:57:07.935Z,6.55
2023-04-15T07:59:34.492Z,6.80
2023-04-15T08:02:01.386Z,6.18
2023-04-15T08:04:28.642Z,6.80
2023-04-15T08:06:55.406Z,6.47
2023-04-15T08:09:22.080Z,6.45
2023-04-15T08:11:49.692Z,6.63
2023-04-15T08:14:16.848Z,6.80
2023-04-15T08:16:43.441Z,7.18
2023-04-15T08:19:10.020Z,7.47
2023-04-15T08:21:36.663Z,6.93
2023-04-15T08:24:03.663Z,7.32
2023-04-15T08:26:30.219Z,7.10
2023-04-15T08:28:57.433Z,7.20
2023-04-15T08:31:24.265Z,6.70
2023-04-15T08:33:52.546Z,5.80
2023-04-15T08:36:19.920Z,6.07
2023-04-15T08:38:46.505Z,7.13
2023-04-15T08:41:27.389Z,6.75
2023-04-15T08:43:54.698Z,6.43
2023-04-15T08:46:22.125Z,5.97
2023-04-15T08:48:50.268Z,6.93
2023-04-15T08:51:18.672Z,6.55
2023-04-15T08:53:47.516Z,7.05
2023-04-15T08:56:16.966Z,6.70
2023-04-15T08:58:47.768Z,6.65
2023-04-15T09:01:14.438Z,6.85
2023-04-15T09:03:42.101Z,6.45
2023-04-15T09:06:08.826Z,5.57
2023-04-15T09:08:35.882Z,5.53
2023-04-15T09:11:03.548Z,5.50
2023-04-15T09:13:30.676Z,5.20
2023-04-15T09:16:00.135Z,5.03
2023-04-15T09:18:32.223Z,4.70
2023-04-15T09:21:29.661Z,4.37
2023-04-15T09:24:01.651Z,4.40
2023-04-15T09:26:36.103Z,5.10
2023-04-15T09:29:06.641Z,4.13
2023-04-15T09:31:33.820Z,5.00
2023-04-15T09:34:00.824Z,4.13
2023-04-15T09:36:30.024Z,3.78
2023-04-15T09:39:00.583Z,4.07
2023-04-15T09:41:27.444Z,4.00
2023-04-15T09:43:54.235Z,4.30
2023-04-15T09:46:20.938Z,4.80
2023-04-15T09:48:47.706Z,4.15
2023-04-15T09:51:14.310Z,5.10
2023-04-15T09:53:40.946Z,3.63
2023-04-15T09:56:08.947Z,4.03
2023-04-15T09:58:37.437Z,3.50
2023-04-15T10:01:06.234Z,3.28
2023-04-15T10:03:36.088Z,3.92
2023-04-15T10:06:03.978Z,3.30
2023-04-15T10:08:33.722Z,3.65
2023-04-15T10:11:05.012Z,3.60
2023-04-15T10:13:37.185Z,3.78
2023-04-15T10:16:10.868Z,3.83
2023-04-15T10:18:43.144Z,4.00
2023-04-15T10:21:10.251Z,3.60
2023-04-15T10:23:36.889Z,3.60
2023-04-15T10:26:05.454Z,3.75
2023-04-15T10:28:32.036Z,3.70
2023-04-15T10:31:00.295Z,3.95
2023-04-15T10:33:28.693Z,3.58
2023-04-15T10:35:55.984Z,3.53
2023-04-15T10:38:45.867Z,3.42
2023-04-15T10:41:13.288Z,2.80
2023-04-15T10:43:40.485Z,2.67
2023-04-15T10:46:07.735Z,2.47
2023-04-15T10:48:34.660Z,2.30
2023-04-15T10:51:05.205Z,2.40
2023-04-15T10:53:32.042Z,3.08
2023-04-15T10:55:59.432Z,3.20
2023-04-15T10:58:26.244Z,2.80
2023-04-15T11:00:53.828Z,2.93
2023-04-15T11:03:40.935Z,14.68
2023-04-15T11:06:07.891Z,3.80
2023-04-15T11:08:56.590Z,3.70
2023-04-15T11:11:23.178Z,3.65
2023-04-15T11:13:52.818Z,3.90
2023-04-15T11:16:19.486Z,3.55
2023-04-15T11:18:56.677Z,3.20
2023-04-15T11:21:26.321Z,3.00
2023-04-15T11:23:52.913Z,2.38
2023-04-15T11:26:19.493Z,2.77
2023-04-15T11:28:46.819Z,2.70
2023-04-15T11:31:18.441Z,2.88
2023-04-15T11:33:59.280Z,2.95
2023-04-15T11:36:29.835Z,3.10
2023-04-15T11:38:59.206Z,2.70
2023-04-15T11:41:25.907Z,3.20
2023-04-15T11:43:53.015Z,3.83
2023-04-15T11:46:22.961Z,3.40
2023-04-15T11:48:49.660Z,3.90
2023-04-15T11:51:16.266Z,3.73
2023-04-15T11:53:50.908Z,4.68
2023-04-15T11:56:25.565Z,4.68
2023-04-15T11:58:53.816Z,4.43
2023-04-15T12:01:20.419Z,4.13
2023-04-15T12:03:49.318Z,3.40
2023-04-15T12:06:22.037Z,4.38
2023-04-15T12:08:49.081Z,3.80
2023-04-15T12:11:16.756Z,4.18
2023-04-15T12:13:48.451Z,3.45
2023-04-15T12:16:22.183Z,4.47
2023-04-15T12:18:53.796Z,3.70
